sensor_id;sensor_type;location;lat;lon;timestamp;temperature;humidity
11617;DHT22;5864;52.998;9.068;2022-08-18T00:00:31;20.80;99.90
11617;DHT22;5864;52.998;9.068;2022-08-18T00:03:03;20.80;99.90
11617;DHT22;5864;52.998;9.068;2022-08-18T00:05:31;20.70;99.90
11617;DHT22;5864;52.998;9.068;2022-08-18T00:07:59;20.70;99.90
11617;DHT22;5864;52.998;9.068;2022-08-18T00:10:27;20.60;99.90
11617;DHT22;5864;52.998;9.068;2022-08-18T00:12:54;20.60;99.90
11617;DHT22;5864;52.998;9.068;2022-08-18T00:15:24;20.60;99.90
11617;DHT22;5864;52.998;9.068;2022-08-18T00:17:51;20.60;99.90
11617;DHT22;5864;52.998;9.068;2022-08-18T00:20:21;20.50;99.90
11617;DHT22;5864;52.998;9.068;2022-08-18T00:22:50;20.40;99.90
11617;DHT22;5864;52.998;9.068;2022-08-18T00:25:19;20.40;99.90
11617;DHT22;5864;52.998;9.068;2022-08-18T00:27:47;20.30;99.90
11617;DHT22;5864;52.998;9.068;2022-08-18T00:30:18;20.40;99.90
11617;DHT22;5864;52.998;9.068;2022-08-18T00:32:52;20.40;99.90
11617;DHT22;5864;52.998;9.068;2022-08-18T00:35:22;20.40;99.90
11617;DHT22;5864;52.998;9.068;2022-08-18T00:37:52;20.40;99.90
11617;DHT22;5864;52.998;9.068;2022-08-18T00:40:25;20.40;99.90
11617;DHT22;5864;52.998;9.068;2022-08-18T00:42:57;20.40;99.90
11617;DHT22;5864;52.998;9.068;2022-08-18T00:45:27;20.40;99.90
11617;DHT22;5864;52.998;9.068;2022-08-18T00:47:56;20.40;99.90
11617;DHT22;5864;52.998;9.068;2022-08-18T00:50:28;20.40;99.90
11617;DHT22;5864;52.998;9.068;2022-08-18T00:53:01;20.40;99.90
11617;DHT22;5864;52.998;9.068;2022-08-18T00:55:30;20.30;99.90
11617;DHT22;5864;52.998;9.068;2022-08-18T00:58:02;20.20;99.90
11617;DHT22;5864;52.998;9.068;2022-08-18T01:00:31;20.20;99.90
11617;DHT22;5864;52.998;9.068;2022-08-18T01:03:04;20.20;99.90
11617;DHT22;5864;52.998;9.068;2022-08-18T01:05:35;20.20;99.90
11617;DHT22;5864;52.998;9.068;2022-08-18T01:08:06;20.20;99.90
11617;DHT22;5864;52.998;9.068;2022-08-18T01:10:37;20.20;99.90
11617;DHT22;5864;52.998;9.068;2022-08-18T01:13:05;20.20;99.90
11617;DHT22;5864;52.998;9.068;2022-08-18T01:15:33;20.20;99.90
11617;DHT22;5864;52.998;9.068;2022-08-18T01:18:05;20.20;99.90
11617;DHT22;5864;52.998;9.068;2022-08-18T01:20:56;20.20;99.90
11617;DHT22;5864;52.998;9.068;2022-08-18T01:23:41;20.20;99.90
11617;DHT22;5864;52.998;9.068;2022-08-18T01:26:10;20.20;99.90
11617;DHT22;5864;52.998;9.068;2022-08-18T01:28:40;20.20;99.90
11617;DHT22;5864;52.998;9.068;2022-08-18T01:31:09;20.20;99.90
11617;DHT22;5864;52.998;9.068;2022-08-18T01:33:39;20.20;99.90
11617;DHT22;5864;52.998;9.068;2022-08-18T01:36:10;20.10;99.90
11617;DHT22;5864;52.998;9.068;2022-08-18T01:38:44;20.10;99.90
11617;DHT22;5864;52.998;9.068;2022-08-18T01:41:12;20.10;99.90
11617;DHT22;5864;52.998;9.068;2022-08-18T01:43:40;20.10;99.90
11617;DHT22;5864;52.998;9.068;2022-08-18T01:46:08;20.00;99.90
11617;DHT22;5864;52.998;9.068;2022-08-18T01:48:36;20.00;99.90
11617;DHT22;5864;52.998;9.068;2022-08-18T01:51:05;19.90;99.90
11617;DHT22;5864;52.998;9.068;2022-08-18T01:53:33;19.90;99.90
11617;DHT22;5864;52.998;9.068;2022-08-18T01:56:03;19.90;99.90
11617;DHT22;5864;52.998;9.068;2022-08-18T01:58:31;19.80;99.90
11617;DHT22;5864;52.998;9.068;2022-08-18T02:00:59;19.80;99.90
11617;DHT22;5864;52.998;9.068;2022-08-18T02:03:30;19.80;99.90
11617;DHT22;5864;52.998;9.068;2022-08-18T02:06:01;19.80;99.90
11617;DHT22;5864;52.998;9.068;2022-08-18T02:08:29;19.80;99.90
11617;DHT22;5864;52.998;9.068;2022-08-18T02:10:57;19.80;99.90
11617;DHT22;5864;52.998;9.068;2022-08-18T02:13:26;19.80;99.90
11617;DHT22;5864;52.998;9.068;2022-08-18T02:15:53;19.80;99.90
11617;DHT22;5864;52.998;9.068;2022-08-18T02:18:24;19.90;99.90
11617;DHT22;5864;52.998;9.068;2022-08-18T02:20:53;19.90;99.90
11617;DHT22;5864;52.998;9.068;2022-08-18T02:23:21;19.90;99.90
11617;DHT22;5864;52.998;9.068;2022-08-18T02:25:48;19.90;99.90
11617;DHT22;5864;52.998;9.068;2022-08-18T02:28:16;19.80;99.90
11617;DHT22;5864;52.998;9.068;2022-08-18T02:30:45;19.80;99.90
11617;DHT22;5864;52.998;9.068;2022-08-18T02:33:12;19.90;99.90
11617;DHT22;5864;52.998;9.068;2022-08-18T02:35:40;19.90;99.90
11617;DHT22;5864;52.998;9.068;2022-08-18T02:38:09;19.80;99.90
11617;DHT22;5864;52.998;9.068;2022-08-18T02:40:36;19.80;99.90
11617;DHT22;5864;52.998;9.068;2022-08-18T02:43:05;19.90;99.90
11617;DHT22;5864;52.998;9.068;2022-08-18T02:45:37;19.90;99.90
11617;DHT22;5864;52.998;9.068;2022-08-18T02:48:06;19.90;99.90
11617;DHT22;5864;52.998;9.068;2022-08-18T02:50:34;19.90;99.90
11617;DHT22;5864;52.998;9.068;2022-08-18T02:53:09;19.90;99.90
11617;DHT22;5864;52.998;9.068;2022-08-18T02:55:40;20.00;99.90
11617;DHT22;5864;52.998;9.068;2022-08-18T02:58:08;20.00;99.90
11617;DHT22;5864;52.998;9.068;2022-08-18T03:00:35;20.10;99.90
11617;DHT22;5864;52.998;9.068;2022-08-18T03:03:03;20.00;99.90
11617;DHT22;5864;52.998;9.068;2022-08-18T03:05:33;20.00;99.90
11617;DHT22;5864;52.998;9.068;2022-08-18T03:08:01;20.00;99.90
11617;DHT22;5864;52.998;9.068;2022-08-18T03:10:28;20.10;99.90
11617;DHT22;5864;52.998;9.068;2022-08-18T03:12:55;20.00;99.90
11617;DHT22;5864;52.998;9.068;2022-08-18T03:15:23;20.00;99.90
11617;DHT22;5864;52.998;9.068;2022-08-18T03:17:50;20.10;99.90
11617;DHT22;5864;52.998;9.068;2022-08-18T03:20:18;20.10;99.90
11617;DHT22;5864;52.998;9.068;2022-08-18T03:22:47;20.00;99.90
11617;DHT22;5864;52.998;9.068;2022-08-18T03:25:14;20.00;99.90
11617;DHT22;5864;52.998;9.068;2022-08-18T03:27:42;20.00;99.90
11617;DHT22;5864;52.998;9.068;2022-08-18T03:30:10;20.00;99.90
11617;DHT22;5864;52.998;9.068;2022-08-18T03:32:37;20.00;99.90
11617;DHT22;5864;52.998;9.068;2022-08-18T03:35:06;20.00;99.90
11617;DHT22;5864;52.998;9.068;2022-08-18T03:37:33;20.10;99.90
11617;DHT22;5864;52.998;9.068;2022-08-18T03:40:03;20.10;99.90
11617;DHT22;5864;52.998;9.068;2022-08-18T03:42:31;20.10;99.90
11617;DHT22;5864;52.998;9.068;2022-08-18T03:44:58;20.10;99.90
11617;DHT22;5864;52.998;9.068;2022-08-18T03:47:26;20.10;99.90
11617;DHT22;5864;52.998;9.068;2022-08-18T03:49:53;20.10;99.90
11617;DHT22;5864;52.998;9.068;2022-08-18T03:52:20;20.10;99.90
11617;DHT22;5864;52.998;9.068;2022-08-18T03:54:48;20.00;99.90
11617;DHT22;5864;52.998;9.068;2022-08-18T03:57:17;20.10;99.90
11617;DHT22;5864;52.998;9.068;2022-08-18T03:59:45;20.10;99.90
11617;DHT22;5864;52.998;9.068;2022-08-18T04:02:12;20.10;99.90
11617;DHT22;5864;52.998;9.068;2022-08-18T04:04:40;20.10;99.90
11617;DHT22;5864;52.998;9.068;2022-08-18T04:07:09;20.10;99.90
11617;DHT22;5864;52.998;9.068;2022-08-18T04:09:37;20.20;99.90
11617;DHT22;5864;52.998;9.068;2022-08-18T04:12:08;20.20;99.90
11617;DHT22;5864;52.998;9.068;2022-08-18T04:14:39;20.20;99.90
11617;DHT22;5864;52.998;9.068;2022-08-18T04:17:07;20.20;99.90
11617;DHT22;5864;52.998;9.068;2022-08-18T04:19:35;20.20;99.90
11617;DHT22;5864;52.998;9.068;2022-08-18T04:22:03;20.10;99.90
11617;DHT22;5864;52.998;9.068;2022-08-18T04:24:32;20.10;99.90
11617;DHT22;5864;52.998;9.068;2022-08-18T04:27:01;20.00;99.90
11617;DHT22;5864;52.998;9.068;2022-08-18T04:29:30;20.00;99.90
11617;DHT22;5864;52.998;9.068;2022-08-18T04:31:59;20.10;99.90
11617;DHT22;5864;52.998;9.068;2022-08-18T04:34:27;20.10;99.90
11617;DHT22;5864;52.998;9.068;2022-08-18T04:36:55;20.10;99.90
11617;DHT22;5864;52.998;9.068;2022-08-18T04:39:23;20.20;99.90
11617;DHT22;5864;52.998;9.068;2022-08-18T04:41:51;20.20;99.90
11617;DHT22;5864;52.998;9.068;2022-08-18T04:44:19;20.20;99.90
11617;DHT22;5864;52.998;9.068;2022-08-18T04:46:49;20.20;99.90
11617;DHT22;5864;52.998;9.068;2022-08-18T04:49:21;20.10;99.90
11617;DHT22;5864;52.998;9.068;2022-08-18T04:51:49;20.20;99.90
11617;DHT22;5864;52.998;9.068;2022-08-18T04:54:31;20.20;99.90
11617;DHT22;5864;52.998;9.068;2022-08-18T04:57:06;20.20;99.90
11617;DHT22;5864;52.998;9.068;2022-08-18T04:59:34;20.20;99.90
11617;DHT22;5864;52.998;9.068;2022-08-18T05:02:02;20.20;99.90
11617;DHT22;5864;52.998;9.068;2022-08-18T05:04:35;20.20;99.90
11617;DHT22;5864;52.998;9.068;2022-08-18T05:07:04;20.20;99.90
11617;DHT22;5864;52.998;9.068;2022-08-18T05:09:32;20.20;99.90
11617;DHT22;5864;52.998;9.068;2022-08-18T05:12:01;20.20;99.90
11617;DHT22;5864;52.998;9.068;2022-08-18T05:14:30;20.30;99.90
11617;DHT22;5864;52.998;9.068;2022-08-18T05:16:58;20.30;99.90
11617;DHT22;5864;52.998;9.068;2022-08-18T05:19:26;20.30;99.90
11617;DHT22;5864;52.998;9.068;2022-08-18T05:21:56;20.20;99.90
11617;DHT22;5864;52.998;9.068;2022-08-18T05:24:25;20.30;99.90
11617;DHT22;5864;52.998;9.068;2022-08-18T05:26:53;20.30;99.90
11617;DHT22;5864;52.998;9.068;2022-08-18T05:29:21;20.30;99.90
11617;DHT22;5864;52.998;9.068;2022-08-18T05:31:49;20.30;99.90
11617;DHT22;5864;52.998;9.068;2022-08-18T05:34:19;20.40;99.90
11617;DHT22;5864;52.998;9.068;2022-08-18T05:37:06;20.40;99.90
11617;DHT22;5864;52.998;9.068;2022-08-18T05:39:39;20.40;99.90
11617;DHT22;5864;52.998;9.068;2022-08-18T05:42:13;20.50;99.90
11617;DHT22;5864;52.998;9.068;2022-08-18T05:44:46;20.50;99.90
11617;DHT22;5864;52.998;9.068;2022-08-18T05:47:16;20.50;99.90
11617;DHT22;5864;52.998;9.068;2022-08-18T05:49:46;20.50;99.90
11617;DHT22;5864;52.998;9.068;2022-08-18T05:52:19;20.40;99.90
11617;DHT22;5864;52.998;9.068;2022-08-18T05:54:51;20.50;99.90
11617;DHT22;5864;52.998;9.068;2022-08-18T05:57:41;20.60;99.90
11617;DHT22;5864;52.998;9.068;2022-08-18T06:00:10;20.60;99.90
11617;DHT22;5864;52.998;9.068;2022-08-18T06:02:42;20.60;99.90
11617;DHT22;5864;52.998;9.068;2022-08-18T06:05:18;20.60;99.90
11617;DHT22;5864;52.998;9.068;2022-08-18T06:07:52;20.60;99.90
11617;DHT22;5864;52.998;9.068;2022-08-18T06:10:21;20.50;99.90
11617;DHT22;5864;52.998;9.068;2022-08-18T06:12:51;20.50;99.90
11617;DHT22;5864;52.998;9.068;2022-08-18T06:15:23;20.50;99.90
11617;DHT22;5864;52.998;9.068;2022-08-18T06:21:02;20.50;99.90
11617;DHT22;5864;52.998;9.068;2022-08-18T06:23:37;20.50;99.90
11617;DHT22;5864;52.998;9.068;2022-08-18T06:26:13;20.50;99.90
11617;DHT22;5864;52.998;9.068;2022-08-18T06:28:57;20.50;99.90
11617;DHT22;5864;52.998;9.068;2022-08-18T06:31:34;20.50;99.90
11617;DHT22;5864;52.998;9.068;2022-08-18T06:34:15;20.50;99.90
11617;DHT22;5864;52.998;9.068;2022-08-18T06:36:50;20.50;99.90
11617;DHT22;5864;52.998;9.068;2022-08-18T06:39:25;20.50;99.90
11617;DHT22;5864;52.998;9.068;2022-08-18T06:41:55;20.50;99.90
11617;DHT22;5864;52.998;9.068;2022-08-18T06:44:29;20.50;99.90
11617;DHT22;5864;52.998;9.068;2022-08-18T06:47:01;20.50;99.90
11617;DHT22;5864;52.998;9.068;2022-08-18T06:49:38;20.60;99.90
11617;DHT22;5864;52.998;9.068;2022-08-18T06:52:19;20.60;99.90
11617;DHT22;5864;52.998;9.068;2022-08-18T06:54:48;20.80;99.90
11617;DHT22;5864;52.998;9.068;2022-08-18T06:57:28;20.80;99.90
11617;DHT22;5864;52.998;9.068;2022-08-18T06:59:58;21.00;99.90
11617;DHT22;5864;52.998;9.068;2022-08-18T07:02:43;21.10;99.90
11617;DHT22;5864;52.998;9.068;2022-08-18T07:05:23;21.20;99.90
11617;DHT22;5864;52.998;9.068;2022-08-18T07:08:10;21.30;99.90
11617;DHT22;5864;52.998;9.068;2022-08-18T07:10:43;21.30;99.90
11617;DHT22;5864;52.998;9.068;2022-08-18T07:13:17;21.30;99.90
11617;DHT22;5864;52.998;9.068;2022-08-18T07:15:45;21.30;99.90
11617;DHT22;5864;52.998;9.068;2022-08-18T07:18:16;21.40;99.90
11617;DHT22;5864;52.998;9.068;2022-08-18T07:20:49;21.40;99.90
11617;DHT22;5864;52.998;9.068;2022-08-18T07:23:23;21.50;99.90
11617;DHT22;5864;52.998;9.068;2022-08-18T07:26:00;21.80;99.90
11617;DHT22;5864;52.998;9.068;2022-08-18T07:28:30;22.20;99.90
11617;DHT22;5864;52.998;9.068;2022-08-18T07:33:54;22.90;99.90
11617;DHT22;5864;52.998;9.068;2022-08-18T07:36:24;23.20;99.90
11617;DHT22;5864;52.998;9.068;2022-08-18T07:38:57;23.60;99.90
11617;DHT22;5864;52.998;9.068;2022-08-18T07:41:32;23.80;99.90
11617;DHT22;5864;52.998;9.068;2022-08-18T07:44:08;23.70;99.90
11617;DHT22;5864;52.998;9.068;2022-08-18T07:46:42;23.50;99.90
11617;DHT22;5864;52.998;9.068;2022-08-18T07:49:17;23.30;99.90
11617;DHT22;5864;52.998;9.068;2022-08-18T07:51:48;23.20;99.90
11617;DHT22;5864;52.998;9.068;2022-08-18T07:54:23;23.10;99.90
11617;DHT22;5864;52.998;9.068;2022-08-18T07:57:01;23.00;99.90
11617;DHT22;5864;52.998;9.068;2022-08-18T07:59:34;23.00;99.90
11617;DHT22;5864;52.998;9.068;2022-08-18T08:02:18;22.90;99.90
11617;DHT22;5864;52.998;9.068;2022-08-18T08:04:51;22.90;99.90
11617;DHT22;5864;52.998;9.068;2022-08-18T08:07:26;22.90;99.90
11617;DHT22;5864;52.998;9.068;2022-08-18T08:10:03;22.90;99.90
11617;DHT22;5864;52.998;9.068;2022-08-18T08:12:41;22.90;99.90
11617;DHT22;5864;52.998;9.068;2022-08-18T08:15:18;22.90;99.90
11617;DHT22;5864;52.998;9.068;2022-08-18T08:17:52;22.90;99.90
11617;DHT22;5864;52.998;9.068;2022-08-18T08:20:27;23.00;99.90
11617;DHT22;5864;52.998;9.068;2022-08-18T08:23:04;23.00;99.90
11617;DHT22;5864;52.998;9.068;2022-08-18T08:25:45;23.00;99.90
11617;DHT22;5864;52.998;9.068;2022-08-18T08:28:27;23.10;99.90
11617;DHT22;5864;52.998;9.068;2022-08-18T08:31:07;23.20;99.90
11617;DHT22;5864;52.998;9.068;2022-08-18T08:33:39;23.30;99.90
11617;DHT22;5864;52.998;9.068;2022-08-18T08:36:10;23.30;99.90
11617;DHT22;5864;52.998;9.068;2022-08-18T08:38:44;23.40;99.90
11617;DHT22;5864;52.998;9.068;2022-08-18T08:41:16;23.50;99.90
11617;DHT22;5864;52.998;9.068;2022-08-18T08:43:52;23.50;99.90
11617;DHT22;5864;52.998;9.068;2022-08-18T08:46:24;23.50;99.90
11617;DHT22;5864;52.998;9.068;2022-08-18T08:49:00;23.70;99.90
11617;DHT22;5864;52.998;9.068;2022-08-18T08:51:34;23.80;99.90
11617;DHT22;5864;52.998;9.068;2022-08-18T08:54:07;24.10;99.90
11617;DHT22;5864;52.998;9.068;2022-08-18T08:56:43;24.20;99.90
11617;DHT22;5864;52.998;9.068;2022-08-18T08:59:15;24.30;99.90
11617;DHT22;5864;52.998;9.068;2022-08-18T09:01:50;24.30;99.90
11617;DHT22;5864;52.998;9.068;2022-08-18T09:04:30;24.30;99.90
11617;DHT22;5864;52.998;9.068;2022-08-18T09:07:13;24.10;99.90
11617;DHT22;5864;52.998;9.068;2022-08-18T09:10:00;24.10;99.90
11617;DHT22;5864;52.998;9.068;2022-08-18T09:12:48;24.10;99.90
11617;DHT22;5864;52.998;9.068;2022-08-18T09:15:59;24.10;99.90
11617;DHT22;5864;52.998;9.068;2022-08-18T09:18:40;24.20;99.90
11617;DHT22;5864;52.998;9.068;2022-08-18T09:21:25;24.20;99.90
11617;DHT22;5864;52.998;9.068;2022-08-18T09:24:04;24.20;99.90
11617;DHT22;5864;52.998;9.068;2022-08-18T09:26:42;24.30;99.90
11617;DHT22;5864;52.998;9.068;2022-08-18T09:29:16;24.30;99.90
11617;DHT22;5864;52.998;9.068;2022-08-18T09:31:45;24.30;99.90
11617;DHT22;5864;52.998;9.068;2022-08-18T09:34:24;24.00;99.90
11617;DHT22;5864;52.998;9.068;2022-08-18T09:37:15;24.10;99.90
11617;DHT22;5864;52.998;9.068;2022-08-18T09:39:52;24.00;99.90
11617;DHT22;5864;52.998;9.068;2022-08-18T09:42:43;24.10;99.90
11617;DHT22;5864;52.998;9.068;2022-08-18T09:45:38;24.10;99.90
11617;DHT22;5864;52.998;9.068;2022-08-18T09:48:27;24.20;99.90
11617;DHT22;5864;52.998;9.068;2022-08-18T10:06:05;24.40;99.90
11617;DHT22;5864;52.998;9.068;2022-08-18T10:08:54;24.50;99.90
11617;DHT22;5864;52.998;9.068;2022-08-18T10:11:48;24.60;99.90
11617;DHT22;5864;52.998;9.068;2022-08-18T10:14:36;24.70;99.90
11617;DHT22;5864;52.998;9.068;2022-08-18T10:17:14;24.60;99.90
11617;DHT22;5864;52.998;9.068;2022-08-18T10:19:52;24.70;99.90
11617;DHT22;5864;52.998;9.068;2022-08-18T10:22:40;25.00;99.90
11617;DHT22;5864;52.998;9.068;2022-08-18T10:25:09;24.90;99.90
11617;DHT22;5864;52.998;9.068;2022-08-18T10:27:48;25.00;99.90
11617;DHT22;5864;52.998;9.068;2022-08-18T10:39:26;26.90;99.90
11617;DHT22;5864;52.998;9.068;2022-08-18T10:42:09;27.00;99.90
11617;DHT22;5864;52.998;9.068;2022-08-18T10:44:43;27.00;99.90
11617;DHT22;5864;52.998;9.068;2022-08-18T10:47:21;26.90;99.90
11617;DHT22;5864;52.998;9.068;2022-08-18T10:49:49;26.70;99.90
11617;DHT22;5864;52.998;9.068;2022-08-18T10:52:39;27.40;99.90
11617;DHT22;5864;52.998;9.068;2022-08-18T10:58:35;28.20;99.90
11617;DHT22;5864;52.998;9.068;2022-08-18T11:01:22;28.80;99.90
11617;DHT22;5864;52.998;9.068;2022-08-18T11:04:06;28.70;99.90
11617;DHT22;5864;52.998;9.068;2022-08-18T11:06:39;28.00;99.90
11617;DHT22;5864;52.998;9.068;2022-08-18T11:09:08;28.00;99.90
11617;DHT22;5864;52.998;9.068;2022-08-18T11:11:41;27.70;99.90
11617;DHT22;5864;52.998;9.068;2022-08-18T11:14:20;27.60;99.90
11617;DHT22;5864;52.998;9.068;2022-08-18T11:16:54;27.50;99.90
11617;DHT22;5864;52.998;9.068;2022-08-18T11:19:26;27.80;99.90
11617;DHT22;5864;52.998;9.068;2022-08-18T11:21:53;27.90;99.90
11617;DHT22;5864;52.998;9.068;2022-08-18T11:24:23;27.60;99.90
11617;DHT22;5864;52.998;9.068;2022-08-18T11:26:54;27.60;99.90
11617;DHT22;5864;52.998;9.068;2022-08-18T11:29:29;27.80;99.90
11617;DHT22;5864;52.998;9.068;2022-08-18T11:32:02;28.40;99.90
11617;DHT22;5864;52.998;9.068;2022-08-18T11:34:38;29.20;99.90
11617;DHT22;5864;52.998;9.068;2022-08-18T11:37:18;29.80;99.90
11617;DHT22;5864;52.998;9.068;2022-08-18T11:39:48;30.30;99.90
11617;DHT22;5864;52.998;9.068;2022-08-18T11:42:19;29.90;99.00
11617;DHT22;5864;52.998;9.068;2022-08-18T11:44:54;29.60;99.60
11617;DHT22;5864;52.998;9.068;2022-08-18T11:47:21;29.40;99.90
11617;DHT22;5864;52.998;9.068;2022-08-18T11:49:53;29.20;99.90
11617;DHT22;5864;52.998;9.068;2022-08-18T11:52:25;29.60;99.90
11617;DHT22;5864;52.998;9.068;2022-08-18T11:54:59;29.90;99.70
11617;DHT22;5864;52.998;9.068;2022-08-18T11:57:49;30.10;99.80
11617;DHT22;5864;52.998;9.068;2022-08-18T12:03:26;29.70;98.90
11617;DHT22;5864;52.998;9.068;2022-08-18T12:05:58;29.50;99.90
11617;DHT22;5864;52.998;9.068;2022-08-18T12:08:31;29.30;99.90
11617;DHT22;5864;52.998;9.068;2022-08-18T12:11:05;29.10;99.80
11617;DHT22;5864;52.998;9.068;2022-08-18T12:13:43;29.10;99.90
11617;DHT22;5864;52.998;9.068;2022-08-18T12:16:15;29.10;99.50
11617;DHT22;5864;52.998;9.068;2022-08-18T12:18:42;29.20;99.90
11617;DHT22;5864;52.998;9.068;2022-08-18T12:21:10;29.30;99.90
11617;DHT22;5864;52.998;9.068;2022-08-18T12:23:39;29.20;99.90
11617;DHT22;5864;52.998;9.068;2022-08-18T12:26:10;29.20;99.90
11617;DHT22;5864;52.998;9.068;2022-08-18T12:28:38;29.20;99.90
11617;DHT22;5864;52.998;9.068;2022-08-18T12:31:07;28.70;99.90
11617;DHT22;5864;52.998;9.068;2022-08-18T12:33:35;28.40;99.90
11617;DHT22;5864;52.998;9.068;2022-08-18T12:36:03;28.50;99.90
11617;DHT22;5864;52.998;9.068;2022-08-18T12:38:32;28.40;99.90
11617;DHT22;5864;52.998;9.068;2022-08-18T12:41:00;28.50;99.90
11617;DHT22;5864;52.998;9.068;2022-08-18T12:43:28;28.50;99.90
11617;DHT22;5864;52.998;9.068;2022-08-18T12:45:57;28.50;99.90
11617;DHT22;5864;52.998;9.068;2022-08-18T12:48:29;28.50;99.90
11617;DHT22;5864;52.998;9.068;2022-08-18T12:50:57;28.30;99.90
11617;DHT22;5864;52.998;9.068;2022-08-18T12:53:25;28.30;99.90
11617;DHT22;5864;52.998;9.068;2022-08-18T12:55:52;28.30;99.90
11617;DHT22;5864;52.998;9.068;2022-08-18T12:58:19;28.50;99.90
11617;DHT22;5864;52.998;9.068;2022-08-18T13:00:47;28.20;99.90
11617;DHT22;5864;52.998;9.068;2022-08-18T13:03:14;28.10;99.90
11617;DHT22;5864;52.998;9.068;2022-08-18T13:05:44;28.10;99.90
11617;DHT22;5864;52.998;9.068;2022-08-18T13:08:16;28.10;99.90
11617;DHT22;5864;52.998;9.068;2022-08-18T13:10:44;27.90;99.90
11617;DHT22;5864;52.998;9.068;2022-08-18T13:13:14;27.90;99.90
11617;DHT22;5864;52.998;9.068;2022-08-18T13:15:42;27.90;99.90
11617;DHT22;5864;52.998;9.068;2022-08-18T13:18:11;27.80;99.90
11617;DHT22;5864;52.998;9.068;2022-08-18T13:20:39;27.80;99.90
11617;DHT22;5864;52.998;9.068;2022-08-18T13:23:08;28.20;99.90
11617;DHT22;5864;52.998;9.068;2022-08-18T13:25:35;28.30;99.90
11617;DHT22;5864;52.998;9.068;2022-08-18T13:28:03;28.70;99.90
11617;DHT22;5864;52.998;9.068;2022-08-18T13:30:31;29.00;99.90
11617;DHT22;5864;52.998;9.068;2022-08-18T13:32:59;29.30;99.90
11617;DHT22;5864;52.998;9.068;2022-08-18T13:35:27;29.40;99.90
11617;DHT22;5864;52.998;9.068;2022-08-18T13:37:55;29.80;99.50
11617;DHT22;5864;52.998;9.068;2022-08-18T13:40:24;30.10;98.30
11617;DHT22;5864;52.998;9.068;2022-08-18T13:42:51;30.10;98.30
11617;DHT22;5864;52.998;9.068;2022-08-18T13:45:20;30.10;98.90
11617;DHT22;5864;52.998;9.068;2022-08-18T13:47:48;30.10;98.80
11617;DHT22;5864;52.998;9.068;2022-08-18T13:50:16;29.50;99.80
11617;DHT22;5864;52.998;9.068;2022-08-18T13:52:44;29.80;98.60
11617;DHT22;5864;52.998;9.068;2022-08-18T13:55:14;30.30;98.50
11617;DHT22;5864;52.998;9.068;2022-08-18T13:57:44;29.80;99.50
11617;DHT22;5864;52.998;9.068;2022-08-18T14:00:15;29.80;99.90
11617;DHT22;5864;52.998;9.068;2022-08-18T14:02:45;29.50;99.90
11617;DHT22;5864;52.998;9.068;2022-08-18T14:05:15;29.30;99.90
11617;DHT22;5864;52.998;9.068;2022-08-18T14:07:43;29.50;99.90
11617;DHT22;5864;52.998;9.068;2022-08-18T14:10:11;29.20;99.90
11617;DHT22;5864;52.998;9.068;2022-08-18T14:12:40;29.00;99.90
11617;DHT22;5864;52.998;9.068;2022-08-18T14:15:12;28.60;99.90
11617;DHT22;5864;52.998;9.068;2022-08-18T14:17:41;28.50;99.90
11617;DHT22;5864;52.998;9.068;2022-08-18T14:20:09;28.40;99.90
11617;DHT22;5864;52.998;9.068;2022-08-18T14:22:56;28.40;99.90
11617;DHT22;5864;52.998;9.068;2022-08-18T14:25:41;28.20;99.90
11617;DHT22;5864;52.998;9.068;2022-08-18T14:28:27;28.00;99.90
11617;DHT22;5864;52.998;9.068;2022-08-18T14:30:56;27.90;99.90
11617;DHT22;5864;52.998;9.068;2022-08-18T14:33:25;28.10;99.90
11617;DHT22;5864;52.998;9.068;2022-08-18T14:35:53;28.30;99.90
11617;DHT22;5864;52.998;9.068;2022-08-18T14:38:21;28.40;99.90
11617;DHT22;5864;52.998;9.068;2022-08-18T14:40:49;28.70;99.90
11617;DHT22;5864;52.998;9.068;2022-08-18T14:43:18;28.80;99.90
11617;DHT22;5864;52.998;9.068;2022-08-18T14:45:47;28.60;99.90
11617;DHT22;5864;52.998;9.068;2022-08-18T14:48:18;28.50;99.90
11617;DHT22;5864;52.998;9.068;2022-08-18T14:50:49;28.10;99.90
11617;DHT22;5864;52.998;9.068;2022-08-18T14:53:18;28.20;99.90
11617;DHT22;5864;52.998;9.068;2022-08-18T14:55:47;28.20;99.90
11617;DHT22;5864;52.998;9.068;2022-08-18T14:58:17;28.20;99.90
11617;DHT22;5864;52.998;9.068;2022-08-18T15:00:45;28.10;99.90
11617;DHT22;5864;52.998;9.068;2022-08-18T15:03:12;27.70;99.90
11617;DHT22;5864;52.998;9.068;2022-08-18T15:05:41;27.40;99.90
11617;DHT22;5864;52.998;9.068;2022-08-18T15:08:09;27.40;99.90
11617;DHT22;5864;52.998;9.068;2022-08-18T15:10:37;27.40;99.90
11617;DHT22;5864;52.998;9.068;2022-08-18T15:13:04;27.30;99.90
11617;DHT22;5864;52.998;9.068;2022-08-18T15:15:33;27.30;99.90
11617;DHT22;5864;52.998;9.068;2022-08-18T15:18:01;27.40;99.90
11617;DHT22;5864;52.998;9.068;2022-08-18T15:20:29;27.40;99.90
11617;DHT22;5864;52.998;9.068;2022-08-18T15:23:01;27.20;99.90
11617;DHT22;5864;52.998;9.068;2022-08-18T15:25:46;27.30;99.90
11617;DHT22;5864;52.998;9.068;2022-08-18T15:28:15;27.30;99.90
11617;DHT22;5864;52.998;9.068;2022-08-18T15:30:44;27.30;99.90
11617;DHT22;5864;52.998;9.068;2022-08-18T15:33:12;27.10;99.90
11617;DHT22;5864;52.998;9.068;2022-08-18T15:35:41;27.20;99.90
11617;DHT22;5864;52.998;9.068;2022-08-18T15:38:10;26.90;99.90
11617;DHT22;5864;52.998;9.068;2022-08-18T15:40:46;27.00;99.90
11617;DHT22;5864;52.998;9.068;2022-08-18T15:43:14;27.10;99.90
11617;DHT22;5864;52.998;9.068;2022-08-18T15:45:44;27.20;99.90
11617;DHT22;5864;52.998;9.068;2022-08-18T15:48:14;27.30;99.90
11617;DHT22;5864;52.998;9.068;2022-08-18T15:50:42;27.50;99.90
11617;DHT22;5864;52.998;9.068;2022-08-18T15:53:15;27.40;99.90
11617;DHT22;5864;52.998;9.068;2022-08-18T15:55:43;27.40;99.90
11617;DHT22;5864;52.998;9.068;2022-08-18T15:58:12;27.20;99.90
11617;DHT22;5864;52.998;9.068;2022-08-18T16:00:41;27.30;99.90
11617;DHT22;5864;52.998;9.068;2022-08-18T16:03:11;27.40;99.90
11617;DHT22;5864;52.998;9.068;2022-08-18T16:05:45;27.30;99.90
11617;DHT22;5864;52.998;9.068;2022-08-18T16:08:15;27.00;99.90
11617;DHT22;5864;52.998;9.068;2022-08-18T16:10:43;26.90;99.90
11617;DHT22;5864;52.998;9.068;2022-08-18T16:13:11;27.00;99.90
11617;DHT22;5864;52.998;9.068;2022-08-18T16:15:42;26.80;99.90
11617;DHT22;5864;52.998;9.068;2022-08-18T16:18:12;26.50;99.90
11617;DHT22;5864;52.998;9.068;2022-08-18T16:20:41;26.50;99.90
11617;DHT22;5864;52.998;9.068;2022-08-18T16:23:10;26.30;99.90
11617;DHT22;5864;52.998;9.068;2022-08-18T16:25:40;26.20;99.90
11617;DHT22;5864;52.998;9.068;2022-08-18T16:28:09;26.20;99.90
11617;DHT22;5864;52.998;9.068;2022-08-18T16:30:38;26.10;99.90
11617;DHT22;5864;52.998;9.068;2022-08-18T16:33:06;26.10;99.90
11617;DHT22;5864;52.998;9.068;2022-08-18T16:35:34;26.00;99.90
11617;DHT22;5864;52.998;9.068;2022-08-18T16:38:04;26.10;99.90
11617;DHT22;5864;52.998;9.068;2022-08-18T16:40:31;25.70;99.90
11617;DHT22;5864;52.998;9.068;2022-08-18T16:43:00;25.60;99.90
11617;DHT22;5864;52.998;9.068;2022-08-18T16:45:28;25.50;99.90
11617;DHT22;5864;52.998;9.068;2022-08-18T16:47:57;25.40;99.90
11617;DHT22;5864;52.998;9.068;2022-08-18T16:50:24;25.40;99.90